Time;durP1;ratioP1;P1;durP2;ratioP2;P2;SDS_P1;SDS_P2;PMS_P1;PMS_P2;Temp;Humidity;BMP_temperature;BMP_pressure;BME280_temperature;BME280_humidity;BME280_pressure;Samples;Min_cycle;Max_cycle;Signal;HPM_P1;HPM_P2
2021/06/06 04:02:27;;;;;;;3.53;3.20;;;14.10;99.90;;;;;;5408404;22;93331;-86
2021/06/06 04:04:53;;;;;;;5.20;4.80;;;13.60;99.90;;;;;;4951019;28;93081;-86
2021/06/06 04:07:19;;;;;;;3.33;3.00;;;14.10;99.90;;;;;;4963325;28;92395;-86
2021/06/06 04:09:45;;;;;;;4.60;4.20;;;;;;;;;;4960308;28;91284;-85
2021/06/06 04:12:11;;;;;;;3.00;2.80;;;14.10;99.90;;;;;;4959793;28;91346;-84
2021/06/06 04:14:36;;;;;;;4.60;4.30;;;14.50;99.90;;;;;;4978248;28;92046;-85
2021/06/06 04:17:02;;;;;;;4.20;3.90;;;14.30;99.90;;;;;;4966988;28;92552;-84
2021/06/06 04:19:28;;;;;;;3.15;2.58;;;14.20;99.90;;;;;;4963531;28;92301;-86
2021/06/06 04:21:54;;;;;;;6.13;3.10;;;14.30;99.90;;;;;;4956200;28;91170;-87
2021/06/06 04:24:19;;;;;;;2.50;2.30;;;14.30;99.90;;;;;;4971050;28;91873;-85
2021/06/06 04:26:45;;;;;;;3.22;2.58;;;14.40;99.90;;;;;;4957670;28;91908;-86
2021/06/06 04:29:11;;;;;;;6.45;3.15;;;14.40;99.90;;;;;;4955355;28;92025;-85
2021/06/06 04:31:37;;;;;;;8.38;4.65;;;;;;;;;;4953029;28;91848;-84
2021/06/06 04:34:03;;;;;;;5.00;4.60;;;14.10;99.90;;;;;;4955476;28;90887;-84
2021/06/06 04:36:29;;;;;;;6.78;3.75;;;14.50;99.90;;;;;;4937024;28;94235;-85
2021/06/06 04:38:55;;;;;;;4.70;3.30;;;14.50;99.90;;;;;;4938961;28;93493;-86
2021/06/06 04:41:21;;;;;;;5.65;5.07;;;14.60;99.90;;;;;;4952541;28;93108;-86
2021/06/06 04:43:47;;;;;;;4.90;3.80;;;14.50;99.90;;;;;;4935591;28;91535;-85
2021/06/06 04:46:16;;;;;;;5.35;3.60;;;14.50;99.90;;;;;;4953549;28;92035;-84
2021/06/06 04:48:44;;;;;;;3.97;3.22;;;14.50;99.90;;;;;;4941400;28;93317;-85
2021/06/06 04:51:19;;;;;;;5.20;4.75;;;14.40;99.90;;;;;;4962493;28;92021;-85
2021/06/06 04:53:46;;;;;;;5.80;4.85;;;14.20;99.90;;;;;;4936786;28;92002;-87
2021/06/06 04:56:14;;;;;;;5.10;4.70;;;14.90;99.90;;;;;;4967177;28;92237;-86
2021/06/06 04:58:40;;;;;;;5.43;4.93;;;14.60;99.90;;;;;;4954539;28;92335;-87
2021/06/06 05:01:06;;;;;;;5.65;5.18;;;14.80;99.90;;;;;;4964467;28;91652;-85
2021/06/06 05:03:32;;;;;;;5.72;5.13;;;14.80;99.90;;;;;;4942261;28;91247;-84
2021/06/06 05:05:58;;;;;;;3.67;3.38;;;14.70;99.90;;;;;;4930228;28;96642;-85
2021/06/06 05:08:24;;;;;;;4.88;3.90;;;14.60;99.90;;;;;;4940459;28;92166;-83
2021/06/06 05:10:51;;;;;;;5.20;4.82;;;14.70;99.90;;;;;;4943516;28;92011;-85
2021/06/06 05:13:17;;;;;;;4.15;3.83;;;14.60;99.90;;;;;;4953093;28;91947;-85
2021/06/06 05:15:43;;;;;;;5.40;4.97;;;14.20;99.90;;;;;;4943743;28;92502;-85
2021/06/06 05:18:11;;;;;;;6.30;5.22;;;14.70;99.90;;;;;;4947413;28;92017;-85
2021/06/06 05:20:41;;;;;;;5.43;5.03;;;14.60;99.90;;;;;;4943708;28;91744;-85
2021/06/06 05:23:08;;;;;;;5.38;4.97;;;14.90;99.90;;;;;;4923815;28;91341;-82
2021/06/06 05:25:35;;;;;;;4.28;3.78;;;14.60;99.90;;;;;;4949962;28;92435;-84
2021/06/06 05:28:01;;;;;;;4.75;4.30;;;14.50;99.90;;;;;;4941447;28;91938;-84
2021/06/06 05:30:30;;;;;;;5.47;4.97;;;14.20;99.90;;;;;;4937920;28;92930;-86
2021/06/06 05:32:56;;;;;;;4.28;3.30;;;14.60;99.90;;;;;;4947749;28;91561;-83
2021/06/06 05:35:24;;;;;;;5.32;4.82;;;14.90;99.90;;;;;;4947196;28;92781;-85
2021/06/06 05:37:51;;;;;;;5.35;4.95;;;14.60;99.90;;;;;;4938114;28;92842;-85
2021/06/06 05:40:17;;;;;;;5.20;4.80;;;15.30;99.90;;;;;;4932981;28;91982;-84
2021/06/06 05:42:45;;;;;;;5.50;5.10;;;14.60;99.90;;;;;;4945897;28;92839;-85
2021/06/06 05:45:13;;;;;;;5.82;5.25;;;14.70;99.90;;;;;;4933586;28;92039;-86
2021/06/06 05:47:39;;;;;;;4.82;3.90;;;14.70;99.90;;;;;;4923038;28;93161;-86
2021/06/06 05:50:06;;;;;;;5.10;4.10;;;14.70;99.90;;;;;;4933831;28;91851;-87
2021/06/06 05:52:32;;;;;;;4.75;4.30;;;14.80;99.90;;;;;;4954198;28;91602;-85
2021/06/06 05:55:03;;;;;;;4.93;4.13;;;14.90;99.90;;;;;;4948250;28;92639;-84
2021/06/06 05:57:28;;;;;;;4.97;4.50;;;15.10;99.90;;;;;;4955123;28;93170;-84
2021/06/06 05:59:55;;;;;;;5.63;5.15;;;15.20;99.90;;;;;;4949675;28;92023;-85
2021/06/06 06:02:21;;;;;;;5.63;5.22;;;15.00;99.90;;;;;;4954055;28;91521;-87
2021/06/06 06:04:47;;;;;;;5.80;5.25;;;15.10;99.90;;;;;;4953347;28;92136;-84
2021/06/06 06:07:13;;;;;;;4.30;3.65;;;15.40;99.90;;;;;;4963041;28;91826;-85
2021/06/06 06:09:38;;;;;;;3.90;3.60;;;15.40;99.90;;;;;;4954051;28;91987;-86
2021/06/06 06:12:05;;;;;;;5.40;5.00;;;15.30;99.90;;;;;;4955822;28;91418;-84
2021/06/06 06:14:32;;;;;;;6.18;5.70;;;15.60;99.90;;;;;;4961272;28;91947;-84
2021/06/06 06:16:57;;;;;;;5.35;4.95;;;15.40;99.90;;;;;;4946652;28;91348;-84
2021/06/06 06:19:23;;;;;;;5.22;4.82;;;;;;;;;;4944751;28;92542;-85
2021/06/06 06:21:49;;;;;;;3.47;3.00;;;15.00;99.90;;;;;;4930181;28;91994;-84
2021/06/06 06:24:15;;;;;;;4.60;4.20;;;;;;;;;;4944727;28;92845;-85
2021/06/06 06:26:41;;;;;;;3.33;3.03;;;14.90;99.90;;;;;;4944707;28;93095;-84
2021/06/06 06:29:07;;;;;;;5.40;4.93;;;14.60;99.90;;;;;;4945517;28;91505;-84
2021/06/06 06:31:34;;;;;;;4.82;4.40;;;15.10;99.90;;;;;;4929372;28;91894;-85
2021/06/06 06:34:02;;;;;;;3.45;3.10;;;15.00;99.90;;;;;;4939606;28;92293;-84
2021/06/06 06:36:27;;;;;;;3.17;2.88;;;15.10;99.90;;;;;;4938977;28;91383;-84
2021/06/06 06:38:54;;;;;;;3.08;2.70;;;15.10;99.90;;;;;;4937711;28;91926;-85
2021/06/06 06:41:28;;;;;;;3.85;3.55;;;15.10;99.90;;;;;;4928256;28;91954;-84
2021/06/06 06:43:54;;;;;;;4.05;3.75;;;16.20;99.90;;;;;;4944361;28;94166;-83
2021/06/06 06:46:22;;;;;;;4.25;3.95;;;15.50;99.90;;;;;;4949850;28;92200;-85
2021/06/06 06:48:48;;;;;;;4.55;4.15;;;16.10;99.90;;;;;;4939913;28;92039;-84
2021/06/06 06:51:16;;;;;;;6.55;4.13;;;16.30;99.90;;;;;;4919708;28;92251;-84
2021/06/06 06:53:42;;;;;;;4.28;3.85;;;16.10;99.90;;;;;;4949391;28;93208;-82
2021/06/06 06:56:09;;;;;;;5.20;2.50;;;16.20;99.90;;;;;;4946187;28;92118;-83
2021/06/06 06:58:36;;;;;;;4.28;3.97;;;15.70;99.90;;;;;;4956515;28;91676;-84
2021/06/06 07:01:02;;;;;;;3.85;3.63;;;16.60;99.90;;;;;;4949298;28;91312;-85
2021/06/06 07:03:31;;;;;;;4.18;3.88;;;16.10;99.90;;;;;;4950673;28;92294;-85
2021/06/06 07:05:59;;;;;;;4.25;3.95;;;15.80;99.90;;;;;;4951372;28;92066;-83
2021/06/06 07:08:34;;;;;;;4.20;3.90;;;16.50;99.90;;;;;;4953056;28;92240;-86
2021/06/06 07:11:01;;;;;;;4.20;3.80;;;16.20;99.90;;;;;;4929505;28;92102;-83
2021/06/06 07:13:28;;;;;;;4.45;4.05;;;16.30;99.90;;;;;;4938403;28;92030;-84
2021/06/06 07:15:57;;;;;;;4.55;4.15;;;17.10;99.90;;;;;;4938693;28;92339;-83
2021/06/06 07:18:23;;;;;;;4.63;4.32;;;16.80;99.90;;;;;;4944033;28;91722;-85
2021/06/06 07:20:52;;;;;;;3.05;2.85;;;16.80;99.90;;;;;;4928262;28;92235;-84
2021/06/06 07:23:19;;;;;;;4.40;4.00;;;17.40;99.90;;;;;;4947456;28;91787;-84
2021/06/06 07:25:47;;;;;;;3.60;3.40;;;17.40;99.90;;;;;;4943677;28;94249;-84
2021/06/06 07:28:20;;;;;;;4.78;4.18;;;17.20;99.90;;;;;;4943989;28;91942;-83
2021/06/06 07:30:50;;;;;;;4.60;4.30;;;17.60;99.90;;;;;;4937795;28;92400;-84
2021/06/06 07:33:23;;;;;;;4.43;4.03;;;17.60;99.90;;;;;;4936248;28;92835;-86
2021/06/06 07:35:50;;;;;;;6.03;3.08;;;17.60;99.90;;;;;;4947483;28;94660;-83
2021/06/06 07:38:16;;;;;;;3.90;3.60;;;17.70;99.90;;;;;;4924041;28;91605;-86
2021/06/06 07:40:45;;;;;;;4.22;3.80;;;18.10;99.90;;;;;;4946400;28;91700;-84
2021/06/06 07:43:11;;;;;;;5.25;4.25;;;17.60;99.90;;;;;;4940982;28;95307;-84
2021/06/06 07:45:40;;;;;;;5.15;4.00;;;18.20;99.90;;;;;;4940006;28;95220;-85
2021/06/06 07:48:07;;;;;;;4.20;3.83;;;17.70;99.90;;;;;;4918706;28;91935;-85
2021/06/06 07:50:35;;;;;;;3.25;2.97;;;18.00;99.90;;;;;;4940403;28;90485;-82
2021/06/06 07:53:01;;;;;;;3.28;3.08;;;17.90;99.90;;;;;;4941568;28;92223;-83
2021/06/06 07:55:31;;;;;;;3.17;2.10;;;17.90;99.90;;;;;;4943617;28;92089;-81
2021/06/06 07:57:58;;;;;;;3.47;3.28;;;17.90;99.90;;;;;;4937154;28;92911;-82
2021/06/06 08:00:43;;;;;;;4.07;3.00;;;18.10;99.90;;;;;;4948309;28;91963;-86
2021/06/06 08:03:11;;;;;;;2.97;2.78;;;18.10;99.90;;;;;;4941399;28;93265;-84
2021/06/06 08:05:38;;;;;;;3.67;3.38;;;17.80;99.90;;;;;;4938464;28;92287;-85
2021/06/06 08:08:05;;;;;;;3.25;3.03;;;18.10;99.90;;;;;;4942542;28;91903;-82
2021/06/06 08:10:33;;;;;;;3.50;3.20;;;17.80;99.90;;;;;;4934119;28;91902;-83
2021/06/06 08:12:59;;;;;;;3.67;3.38;;;18.00;99.90;;;;;;4941576;28;92285;-86
2021/06/06 08:15:27;;;;;;;3.25;3.05;;;18.40;99.90;;;;;;4936549;28;91476;-85
2021/06/06 08:17:54;;;;;;;3.53;3.33;;;18.00;99.90;;;;;;4936317;28;91856;-83
2021/06/06 08:20:29;;;;;;;3.00;2.90;;;17.80;99.90;;;;;;4931610;28;92127;-85
2021/06/06 08:22:59;;;;;;;3.63;3.33;;;17.70;99.90;;;;;;4940759;28;93371;-84
2021/06/06 08:25:28;;;;;;;2.80;1.85;;;18.00;99.90;;;;;;4934816;28;91955;-82
2021/06/06 08:27:54;;;;;;;4.20;3.88;;;17.80;99.90;;;;;;4941410;28;91564;-83
2021/06/06 08:30:29;;;;;;;3.88;3.58;;;18.10;99.90;;;;;;4941542;28;92171;-85
2021/06/06 08:32:55;;;;;;;3.85;3.55;;;18.50;99.90;;;;;;4946302;28;93309;-83
2021/06/06 08:35:21;;;;;;;3.47;2.30;;;18.10;99.90;;;;;;4940250;28;92087;-81
2021/06/06 08:37:48;;;;;;;3.47;2.30;;;18.20;99.90;;;;;;4935957;28;92167;-81
2021/06/06 08:40:31;;;;;;;3.85;3.60;;;18.30;99.90;;;;;;4939570;28;91297;-88
2021/06/06 08:43:00;;;;;;;3.63;2.60;;;18.40;99.90;;;;;;4936872;28;92688;-84
2021/06/06 08:45:34;;;;;;;4.00;3.70;;;18.20;99.90;;;;;;4938522;28;92160;-85
2021/06/06 08:48:02;;;;;;;4.13;3.83;;;18.60;99.90;;;;;;4946989;28;93025;-84
2021/06/06 08:50:36;;;;;;;3.80;3.50;;;18.50;99.90;;;;;;4926445;28;91988;-84
2021/06/06 08:53:29;;;;;;;3.97;3.67;;;18.30;99.90;;;;;;4938866;28;92061;-89
2021/06/06 08:56:20;;;;;;;5.32;3.78;;;18.70;99.90;;;;;;4947077;28;91940;-84
2021/06/06 08:59:28;;;;;;;2.50;2.30;;;18.60;99.90;;;;;;4934491;28;91860;-84
2021/06/06 09:02:33;;;;;;;4.00;3.63;;;18.10;99.90;;;;;;4937867;28;92053;-84
2021/06/06 09:05:01;;;;;;;3.40;3.20;;;18.50;99.90;;;;;;4945348;28;92040;-86
2021/06/06 09:07:45;;;;;;;3.83;3.63;;;18.80;99.90;;;;;;4941042;28;93549;-87
2021/06/06 09:10:18;;;;;;;3.42;3.22;;;18.30;99.90;;;;;;4925687;28;92262;-92
2021/06/06 09:12:44;;;;;;;3.85;3.65;;;18.30;99.90;;;;;;4923362;28;92174;-86
2021/06/06 09:15:13;;;;;;;4.20;3.22;;;18.60;99.90;;;;;;4919997;28;96137;-82
2021/06/06 09:17:47;;;;;;;3.58;3.38;;;18.50;99.90;;;;;;4939957;28;92916;-86
2021/06/06 09:20:33;;;;;;;3.60;3.40;;;18.20;99.90;;;;;;4934553;28;91562;-86
2021/06/06 09:23:25;;;;;;;3.55;3.33;;;18.10;99.90;;;;;;4945724;28;91806;-86
2021/06/06 09:26:05;;;;;;;4.65;4.07;;;18.60;99.90;;;;;;4936357;28;91984;-85
2021/06/06 09:28:33;;;;;;;3.80;3.60;;;18.70;99.90;;;;;;4939186;28;92399;-86
2021/06/06 09:31:17;;;;;;;4.07;3.80;;;18.40;99.90;;;;;;4955775;28;91805;-85
2021/06/06 09:33:45;;;;;;;3.78;3.58;;;18.60;99.90;;;;;;4942865;28;91078;-86
2021/06/06 09:36:17;;;;;;;4.10;3.80;;;18.30;99.90;;;;;;4944545;28;92103;-86
2021/06/06 09:38:47;;;;;;;3.97;3.67;;;18.10;99.90;;;;;;4920352;28;93286;-87
2021/06/06 09:41:32;;;;;;;5.93;4.03;;;18.50;99.90;;;;;;4936958;28;92883;-86
2021/06/06 09:44:30;;;;;;;4.55;4.15;;;18.20;99.90;;;;;;4960927;28;91993;-84
2021/06/06 09:47:11;;;;;;;3.67;3.47;;;17.70;99.90;;;;;;4960816;28;91569;-87
2021/06/06 09:49:38;;;;;;;3.95;3.65;;;18.40;99.90;;;;;;4947457;28;92072;-88
2021/06/06 09:52:17;;;;;;;5.18;4.68;;;18.10;99.90;;;;;;4950619;28;91949;-88
2021/06/06 09:54:52;;;;;;;4.07;3.67;;;18.20;99.90;;;;;;4948605;28;91556;-85
2021/06/06 09:57:38;;;;;;;4.43;4.03;;;17.90;99.90;;;;;;4959787;28;92303;-86
2021/06/06 10:00:16;;;;;;;4.95;4.55;;;18.00;99.90;;;;;;4933179;28;92474;-86
2021/06/06 10:03:21;;;;;;;4.70;4.22;;;17.90;99.90;;;;;;4950773;28;91826;-85
2021/06/06 10:05:48;;;;;;;4.70;4.28;;;18.10;99.90;;;;;;4945929;28;92031;-86
2021/06/06 10:08:24;;;;;;;4.15;3.85;;;18.10;99.90;;;;;;4947841;28;92891;-84
2021/06/06 10:11:05;;;;;;;4.00;3.60;;;18.70;99.90;;;;;;4942002;28;92927;-84
2021/06/06 10:13:32;;;;;;;;;;;18.50;99.90;;;;;;4949060;28;91632;-83
2021/06/06 10:16:07;;;;;;;3.95;3.65;;;18.80;99.90;;;;;;4950065;28;92109;-86
2021/06/06 10:18:36;;;;;;;3.92;3.60;;;19.00;99.90;;;;;;4949555;28;92199;-86
2021/06/06 10:21:16;;;;;;;4.65;4.35;;;19.20;99.90;;;;;;4944700;28;91684;-83
2021/06/06 10:23:50;;;;;;;4.00;3.70;;;19.20;99.90;;;;;;4950739;28;91882;-85
2021/06/06 10:26:36;;;;;;;4.38;4.05;;;19.80;99.90;;;;;;4947731;28;90861;-85
2021/06/06 10:29:24;;;;;;;3.90;3.60;;;19.60;99.90;;;;;;4948018;28;92260;-85
2021/06/06 10:31:54;;;;;;;4.40;4.10;;;19.70;99.90;;;;;;4935613;28;92410;-84
2021/06/06 10:34:31;;;;;;;4.20;3.90;;;20.00;99.90;;;;;;4939803;28;93064;-84
2021/06/06 10:36:57;;;;;;;3.83;3.53;;;20.20;99.90;;;;;;4945583;28;91912;-84
2021/06/06 10:39:27;;;;;;;3.85;3.55;;;20.20;99.90;;;;;;4950261;28;92029;-83
2021/06/06 10:42:20;;;;;;;3.88;3.67;;;20.00;99.90;;;;;;4940811;28;92159;-85
2021/06/06 10:45:14;;;;;;;4.03;3.72;;;20.00;99.90;;;;;;4931278;28;92003;-83
2021/06/06 10:47:52;;;;;;;4.32;3.90;;;20.00;99.90;;;;;;4950108;28;91979;-84
2021/06/06 10:50:47;;;;;;;4.18;3.95;;;20.10;99.90;;;;;;4940539;28;92084;-86
2021/06/06 10:53:25;;;;;;;4.30;3.97;;;19.70;99.90;;;;;;4949065;28;93239;-85
2021/06/06 10:56:07;;;;;;;3.72;3.42;;;20.10;99.90;;;;;;4943760;28;92007;-85
2021/06/06 10:58:38;;;;;;;3.97;3.67;;;20.00;99.90;;;;;;4943872;28;91559;-84
2021/06/06 11:01:08;;;;;;;4.43;4.13;;;20.10;99.90;;;;;;4942949;28;93217;-83
2021/06/06 11:03:36;;;;;;;3.85;3.60;;;20.00;99.90;;;;;;4951817;28;92898;-86
2021/06/06 11:06:29;;;;;;;3.80;3.50;;;20.10;99.90;;;;;;4945498;28;92158;-84
2021/06/06 11:08:57;;;;;;;3.67;3.47;;;20.00;99.90;;;;;;4950351;28;92157;-85
2021/06/06 11:11:35;;;;;;;4.20;3.90;;;20.00;99.90;;;;;;4951846;28;91577;-84
2021/06/06 11:14:18;;;;;;;3.40;3.10;;;20.00;99.90;;;;;;4947152;28;92324;-84
2021/06/06 11:16:50;;;;;;;4.60;4.20;;;19.70;99.90;;;;;;4949156;28;92216;-83
2021/06/06 11:19:19;;;;;;;3.83;3.63;;;19.70;99.90;;;;;;4959924;28;91363;-85
2021/06/06 11:21:52;;;;;;;4.32;3.92;;;19.60;99.90;;;;;;4949565;28;91918;-84
2021/06/06 11:24:25;;;;;;;2.75;2.50;;;19.50;99.90;;;;;;4951596;28;91922;-83
2021/06/06 11:27:03;;;;;;;4.13;3.85;;;19.40;99.90;;;;;;4938352;28;92978;-84
2021/06/06 11:29:50;;;;;;;4.03;3.80;;;19.70;99.90;;;;;;4937836;28;92185;-81
2021/06/06 11:32:21;;;;;;;3.70;3.50;;;20.90;99.90;;;;;;4912871;28;92872;-84
2021/06/06 11:35:06;;;;;;;4.38;4.07;;;19.20;99.90;;;;;;4945086;28;92335;-84
2021/06/06 11:37:32;;;;;;;4.35;4.03;;;19.50;99.90;;;;;;4924577;28;91991;-85
2021/06/06 11:40:08;;;;;;;4.38;3.97;;;19.40;99.90;;;;;;4943938;28;92414;-82
2021/06/06 11:42:41;;;;;;;5.28;4.88;;;19.30;99.90;;;;;;4942693;28;91934;-84
2021/06/06 11:45:23;;;;;;;4.22;3.95;;;19.50;99.90;;;;;;4942249;28;92066;-85
2021/06/06 11:48:00;;;;;;;4.60;4.20;;;19.00;99.90;;;;;;4935863;28;92098;-84
2021/06/06 11:50:49;;;;;;;4.30;4.00;;;19.30;99.90;;;;;;4941518;28;92137;-87
2021/06/06 11:53:23;;;;;;;4.80;4.40;;;19.60;99.90;;;;;;4933974;28;94480;-83
2021/06/06 11:55:52;;;;;;;4.43;4.13;;;18.80;99.90;;;;;;4947590;28;93251;-85
2021/06/06 11:58:25;;;;;;;4.50;4.10;;;19.80;99.90;;;;;;4930626;28;92317;-84
2021/06/06 12:01:11;;;;;;;4.38;4.00;;;19.60;99.90;;;;;;4950183;28;91607;-85
2021/06/06 12:03:40;;;;;;;4.45;4.15;;;19.50;99.90;;;;;;4942774;28;92714;-85
2021/06/06 12:06:20;;;;;;;4.43;4.03;;;19.40;99.90;;;;;;4939674;28;92516;-85
2021/06/06 12:08:50;;;;;;;3.90;3.70;;;19.50;99.90;;;;;;4947018;28;92060;-87
2021/06/06 12:11:15;;;;;;;4.28;3.97;;;19.60;99.90;;;;;;4941248;28;91338;-89
2021/06/06 12:13:43;;;;;;;3.60;3.30;;;19.90;99.90;;;;;;4943330;28;91981;-86
2021/06/06 12:16:18;;;;;;;4.00;3.65;;;19.80;99.90;;;;;;4937960;28;92403;-84
2021/06/06 12:18:59;;;;;;;4.25;3.85;;;19.90;99.90;;;;;;4940340;28;92796;-85
2021/06/06 12:21:25;;;;;;;4.05;3.75;;;19.80;99.90;;;;;;4946159;28;91970;-87
2021/06/06 12:24:03;;;;;;;4.70;4.30;;;19.90;99.90;;;;;;4944421;28;92050;-86
2021/06/06 12:26:31;;;;;;;4.35;3.90;;;19.80;99.90;;;;;;4947578;28;91954;-83
2021/06/06 12:28:58;;;;;;;4.57;4.28;;;20.00;99.90;;;;;;4925090;28;92054;-86
2021/06/06 12:31:23;;;;;;;4.18;3.88;;;19.90;99.90;;;;;;4949701;28;92131;-85
2021/06/06 12:33:49;;;;;;;4.32;4.03;;;20.00;99.90;;;;;;4949904;28;92555;-86
2021/06/06 12:36:29;;;;;;;3.78;3.47;;;20.10;99.90;;;;;;4943026;28;92237;-86
2021/06/06 12:38:58;;;;;;;3.90;3.60;;;20.30;99.90;;;;;;4944502;28;91981;-87
2021/06/06 12:41:25;;;;;;;4.82;4.18;;;20.30;99.90;;;;;;4944027;28;91591;-85
2021/06/06 12:43:54;;;;;;;4.57;4.28;;;20.20;99.90;;;;;;4949976;28;93301;-86
2021/06/06 12:46:21;;;;;;;4.43;4.13;;;20.10;99.90;;;;;;4932720;28;93314;-86
2021/06/06 12:49:03;;;;;;;4.28;3.97;;;20.20;99.90;;;;;;4946857;28;92040;-86
2021/06/06 12:51:48;;;;;;;4.20;2.72;;;20.20;99.90;;;;;;4940757;28;91598;-85
2021/06/06 12:54:21;;;;;;;5.43;3.70;;;20.70;99.90;;;;;;4930277;28;93460;-86
2021/06/06 12:56:49;;;;;;;5.07;4.78;;;20.80;99.90;;;;;;4942683;28;95323;-87
2021/06/06 12:59:20;;;;;;;4.53;4.18;;;20.60;99.90;;;;;;4939402;28;91931;-86
2021/06/06 13:01:46;;;;;;;;;;;20.90;99.90;;;;;;4940406;28;91464;-86
2021/06/06 13:04:24;;;;;;;3.30;3.00;;;20.80;99.90;;;;;;4947812;28;92160;-86
2021/06/06 13:06:51;;;;;;;5.10;4.63;;;20.10;99.90;;;;;;4935767;28;91990;-86
2021/06/06 13:09:22;;;;;;;4.28;3.97;;;20.50;99.90;;;;;;4947266;28;93018;-85
2021/06/06 13:11:49;;;;;;;;;;;20.50;99.90;;;;;;4948376;28;91972;-85
2021/06/06 13:14:26;;;;;;;3.58;3.28;;;20.20;99.90;;;;;;4932778;28;92775;-87
2021/06/06 13:16:57;;;;;;;2.70;2.60;;;20.00;99.90;;;;;;4945606;28;91865;-86
2021/06/06 13:19:25;;;;;;;2.88;2.67;;;20.10;99.90;;;;;;4951743;28;91607;-85
2021/06/06 13:21:56;;;;;;;3.00;2.80;;;19.80;99.90;;;;;;4952358;28;91944;-87
2021/06/06 13:24:34;;;;;;;2.90;2.70;;;20.20;99.90;;;;;;4950198;28;91766;-86
2021/06/06 13:27:05;;;;;;;2.60;2.50;;;19.90;99.90;;;;;;4942063;28;91759;-85
2021/06/06 13:29:34;;;;;;;1.17;1.17;;;20.00;99.90;;;;;;4935723;28;91847;-86
2021/06/06 13:32:07;;;;;;;1.20;1.20;;;19.90;99.90;;;;;;4945543;28;92033;-83
2021/06/06 13:34:33;;;;;;;2.90;2.70;;;20.00;99.90;;;;;;4943219;28;93662;-86
2021/06/06 13:37:00;;;;;;;2.63;2.50;;;19.90;99.90;;;;;;4944092;28;92910;-86
2021/06/06 13:39:29;;;;;;;2.63;2.53;;;19.90;99.90;;;;;;4949799;28;92071;-86
2021/06/06 13:41:57;;;;;;;3.15;2.80;;;20.00;99.90;;;;;;4936294;28;92098;-87
2021/06/06 13:44:24;;;;;;;2.70;2.50;;;19.50;99.90;;;;;;4946064;28;91948;-85
2021/06/06 13:46:50;;;;;;;2.42;1.38;;;19.50;99.90;;;;;;4939025;28;92109;-87
2021/06/06 13:49:18;;;;;;;2.72;2.63;;;19.30;99.90;;;;;;4949370;28;91842;-85
2021/06/06 13:51:44;;;;;;;2.80;2.67;;;19.90;99.90;;;;;;4950537;28;91455;-87
2021/06/06 13:54:10;;;;;;;2.80;2.60;;;19.40;99.90;;;;;;4943082;28;92353;-87
2021/06/06 13:56:36;;;;;;;1.60;1.50;;;19.40;99.90;;;;;;4949426;28;91890;-86
2021/06/06 13:59:04;;;;;;;3.05;2.85;;;19.20;99.90;;;;;;4955246;28;93087;-86
2021/06/06 14:01:36;;;;;;;4.95;3.00;;;19.00;99.90;;;;;;4954915;28;91814;-87
2021/06/06 14:04:02;;;;;;;1.35;1.23;;;19.10;99.90;;;;;;4951964;28;92276;-85
2021/06/06 14:06:28;;;;;;;1.90;1.80;;;19.10;99.90;;;;;;4954794;28;92693;-86
2021/06/06 14:08:54;;;;;;;3.22;2.92;;;;;;;;;;4954737;28;91966;-87
2021/06/06 14:11:25;;;;;;;2.97;2.78;;;19.20;99.90;;;;;;4946178;28;91937;-86
2021/06/06 14:13:50;;;;;;;2.65;2.55;;;18.90;99.90;;;;;;4930828;28;94100;-86
2021/06/06 14:16:22;;;;;;;2.20;1.50;;;18.90;99.90;;;;;;4944475;28;92286;-86
2021/06/06 14:18:48;;;;;;;3.20;3.00;;;;;;;;;;4951791;28;91903;-86
2021/06/06 14:21:18;;;;;;;3.28;2.97;;;18.50;99.90;;;;;;4943849;28;91398;-87
2021/06/06 14:23:45;;;;;;;3.25;3.05;;;;;;;;;;4943811;28;93591;-87
2021/06/06 14:26:11;;;;;;;2.70;2.60;;;19.00;99.90;;;;;;4949538;28;92866;-84
2021/06/06 14:28:37;;;;;;;2.50;2.30;;;18.90;99.90;;;;;;4938409;28;91981;-86
2021/06/06 14:31:04;;;;;;;2.78;2.58;;;18.90;99.90;;;;;;4947148;28;92769;-87
2021/06/06 14:33:30;;;;;;;3.42;3.13;;;;;;;;;;4944907;28;92495;-86
2021/06/06 14:36:04;;;;;;;2.67;2.58;;;19.20;99.90;;;;;;4945183;28;92045;-86
2021/06/06 14:38:30;;;;;;;2.88;2.67;;;19.30;99.90;;;;;;4939660;28;91997;-86
2021/06/06 14:40:58;;;;;;;2.55;2.45;;;19.00;99.90;;;;;;4923386;28;91058;-85
2021/06/06 14:43:25;;;;;;;3.00;2.80;;;19.50;99.90;;;;;;4940017;28;92669;-85
2021/06/06 14:45:52;;;;;;;2.70;2.60;;;19.30;99.90;;;;;;4950362;28;91915;-85
2021/06/06 14:48:21;;;;;;;1.90;1.48;;;19.30;99.90;;;;;;4942605;28;92727;-82
2021/06/06 14:50:48;;;;;;;2.53;2.42;;;19.20;99.90;;;;;;4964257;28;92000;-85
2021/06/06 14:53:16;;;;;;;2.80;2.60;;;18.90;99.90;;;;;;4941765;28;93388;-88
2021/06/06 14:55:43;;;;;;;3.15;2.95;;;18.90;99.90;;;;;;4962718;28;91600;-82
2021/06/06 14:58:09;;;;;;;4.00;2.85;;;18.80;99.90;;;;;;4943492;28;92025;-86
2021/06/06 15:00:39;;;;;;;3.58;3.30;;;19.00;99.90;;;;;;4963894;28;92446;-85
2021/06/06 15:03:05;;;;;;;2.70;2.60;;;;;;;;;;4954210;28;91957;-87
2021/06/06 15:05:32;;;;;;;2.40;2.30;;;18.30;99.90;;;;;;4951324;28;91702;-85
2021/06/06 15:08:00;;;;;;;4.03;2.50;;;18.20;99.90;;;;;;4945527;28;91750;-87
2021/06/06 15:10:26;;;;;;;2.50;2.40;;;;;;;;;;4948524;28;91955;-86
2021/06/06 15:12:52;;;;;;;2.97;2.80;;;17.90;99.90;;;;;;4941408;28;93190;-85
2021/06/06 15:15:23;;;;;;;3.47;3.20;;;17.90;99.90;;;;;;4929490;28;95666;-85
2021/06/06 15:17:50;;;;;;;2.72;2.53;;;17.90;99.90;;;;;;4951590;28;91980;-86
2021/06/06 15:20:24;;;;;;;2.80;2.70;;;17.80;99.90;;;;;;4945572;28;91499;-84
2021/06/06 15:22:49;;;;;;;3.03;2.85;;;17.80;99.90;;;;;;4948088;28;92369;-85
2021/06/06 15:25:18;;;;;;;4.80;3.17;;;17.90;99.90;;;;;;4954168;28;91837;-86
2021/06/06 15:27:44;;;;;;;3.08;2.83;;;17.70;99.90;;;;;;4932012;28;92065;-86
2021/06/06 15:30:13;;;;;;;3.20;2.97;;;18.00;99.90;;;;;;4947554;28;90983;-85
2021/06/06 15:32:39;;;;;;;3.42;3.15;;;17.80;99.90;;;;;;4922600;28;96462;-87
2021/06/06 15:35:07;;;;;;;3.63;2.90;;;18.30;99.90;;;;;;4952915;28;91981;-86
2021/06/06 15:37:32;;;;;;;1.50;1.40;;;18.00;99.90;;;;;;4948299;28;92176;-84
2021/06/06 15:39:58;;;;;;;3.28;3.08;;;;;;;;;;4951629;28;91517;-87
2021/06/06 15:42:24;;;;;;;3.33;3.08;;;18.40;99.90;;;;;;4932783;28;93364;-84
2021/06/06 15:44:50;;;;;;;2.83;1.60;;;18.10;99.90;;;;;;4951290;28;91596;-86
2021/06/06 15:47:17;;;;;;;3.13;2.83;;;18.30;99.90;;;;;;4933907;28;91973;-84
2021/06/06 15:49:42;;;;;;;3.47;3.17;;;18.60;99.90;;;;;;4950248;28;91756;-85
2021/06/06 15:52:10;;;;;;;3.53;3.30;;;18.70;99.90;;;;;;4950674;28;92323;-85
2021/06/06 15:54:37;;;;;;;3.13;2.92;;;18.60;99.90;;;;;;4946691;28;91267;-86
2021/06/06 15:57:05;;;;;;;3.38;3.28;;;18.50;99.90;;;;;;4954420;28;91916;-85
2021/06/06 15:59:32;;;;;;;3.28;3.08;;;18.40;99.90;;;;;;4943114;28;92103;-85
2021/06/06 16:02:02;;;;;;;3.10;2.90;;;18.60;99.90;;;;;;4952830;28;92695;-84
2021/06/06 16:04:27;;;;;;;3.10;2.90;;;18.70;99.90;;;;;;4953220;28;92572;-86
2021/06/06 16:06:53;;;;;;;3.10;2.90;;;18.50;99.90;;;;;;4945801;28;91941;-86
2021/06/06 16:09:19;;;;;;;3.65;3.35;;;19.10;99.90;;;;;;4932560;28;92094;-85
2021/06/06 16:11:45;;;;;;;3.30;3.10;;;19.10;99.90;;;;;;4936535;28;92576;-86
2021/06/06 16:14:12;;;;;;;3.08;2.88;;;19.20;99.90;;;;;;4938487;28;93117;-87
2021/06/06 16:16:38;;;;;;;2.85;2.60;;;19.00;99.90;;;;;;4929029;28;91996;-84
2021/06/06 16:19:04;;;;;;;3.08;2.88;;;19.20;99.90;;;;;;4940246;28;91260;-87
2021/06/06 16:21:30;;;;;;;3.05;2.75;;;18.80;99.90;;;;;;4942367;28;93238;-83
2021/06/06 16:23:57;;;;;;;3.17;2.97;;;19.10;99.90;;;;;;4947506;28;92408;-83
2021/06/06 16:26:25;;;;;;;3.15;2.95;;;18.90;99.90;;;;;;4922762;28;92912;-84
2021/06/06 16:28:50;;;;;;;1.77;1.67;;;19.10;99.90;;;;;;4941890;28;92041;-85
2021/06/06 16:31:18;;;;;;;3.47;3.22;;;18.90;99.90;;;;;;4945240;28;91815;-85
2021/06/06 16:33:47;;;;;;;3.20;3.00;;;18.70;99.90;;;;;;4942638;28;91306;-85
2021/06/06 16:36:13;;;;;;;3.22;2.75;;;18.90;99.90;;;;;;4947685;28;92155;-84
2021/06/06 16:38:39;;;;;;;3.08;2.85;;;19.00;99.90;;;;;;4946260;28;91757;-86
2021/06/06 16:41:05;;;;;;;3.70;3.10;;;;;;;;;;4937837;28;92038;-85
2021/06/06 16:43:31;;;;;;;2.85;2.70;;;18.90;99.90;;;;;;4944720;28;92950;-85
2021/06/06 16:45:57;;;;;;;2.80;2.60;;;;;;;;;;4945944;28;91954;-85
2021/06/06 16:48:24;;;;;;;3.28;3.05;;;18.70;99.90;;;;;;4946540;28;92082;-86
2021/06/06 16:50:49;;;;;;;3.10;2.88;;;18.40;99.90;;;;;;4949119;28;93598;-85
2021/06/06 16:53:17;;;;;;;1.80;1.70;;;18.60;99.90;;;;;;4949289;28;93378;-84
2021/06/06 16:55:48;;;;;;;3.55;3.35;;;18.70;99.90;;;;;;4943672;28;91466;-88
2021/06/06 16:58:16;;;;;;;1.80;1.70;;;18.50;99.90;;;;;;4947196;28;92087;-85
2021/06/06 17:00:44;;;;;;;3.13;2.90;;;18.80;99.90;;;;;;4945466;28;92780;-88
2021/06/06 17:03:13;;;;;;;3.67;3.45;;;18.60;99.90;;;;;;4937106;28;92079;-86
2021/06/06 17:05:39;;;;;;;3.05;2.85;;;18.60;99.90;;;;;;4945451;28;92032;-86
2021/06/06 17:08:07;;;;;;;3.20;3.00;;;18.40;99.90;;;;;;4950511;28;90606;-86
2021/06/06 17:10:35;;;;;;;3.10;2.90;;;18.60;99.90;;;;;;4939650;28;92379;-86